Time;durP1;ratioP1;P1;durP2;ratioP2;P2;SDS_P1;SDS_P2;PMS_P1;PMS_P2;Temp;Humidity;BMP_temperature;BMP_pressure;BME280_temperature;BME280_humidity;BME280_pressure;Samples;Min_cycle;Max_cycle;Signal;HPM_P1;HPM_P2
2024/01/20 00:00:14;;;;;;;17.00;12.10;;;;;;;7.97;93.08;96495.47;5087413;28;20593;-63
2024/01/20 00:02:42;;;;;;;15.60;11.10;;;;;;;7.91;93.30;96492.31;5086192;28;20219;-62
2024/01/20 00:05:11;;;;;;;18.77;11.33;;;;;;;7.97;93.13;96492.91;5086565;28;20193;-62
2024/01/20 00:07:39;;;;;;;18.73;13.67;;;;;;;7.88;93.34;96495.88;5087068;28;20254;-61
2024/01/20 00:10:12;;;;;;;20.87;13.97;;;;;;;7.67;94.12;96512.25;5085724;28;20248;-61
2024/01/20 00:12:42;;;;;;;20.47;13.73;;;;;;;7.43;94.72;96515.88;5087163;28;20192;-62
2024/01/20 00:15:10;;;;;;;17.27;11.30;;;;;;;7.52;95.84;96517.22;5085539;28;20226;-62
2024/01/20 00:17:39;;;;;;;19.83;13.50;;;;;;;7.59;95.15;96537.50;5086913;28;20204;-63
2024/01/20 00:20:08;;;;;;;18.30;12.60;;;;;;;7.61;95.63;96543.44;5086056;28;20521;-63
2024/01/20 00:22:36;;;;;;;19.70;14.13;;;;;;;7.64;94.06;96545.91;5086189;28;20181;-63
2024/01/20 00:25:04;;;;;;;22.60;15.00;;;;;;;7.39;95.18;96555.53;5086749;28;20295;-61
2024/01/20 00:27:31;;;;;;;24.90;16.50;;;;;;;7.19;96.13;96548.59;5085281;28;20201;-63
2024/01/20 00:29:59;;;;;;;23.57;15.83;;;;;;;7.11;95.47;96567.84;5086603;28;20234;-63
2024/01/20 00:32:28;;;;;;;19.07;14.80;;;;;;;7.14;96.29;96581.44;5085463;28;20210;-62
2024/01/20 00:34:55;;;;;;;18.70;14.10;;;;;;;7.09;93.89;96579.94;5086628;28;20198;-63
2024/01/20 00:37:36;;;;;;;20.70;14.03;;;;;;;7.06;95.41;96582.63;5086361;28;20338;-61
2024/01/20 00:40:05;;;;;;;23.13;14.37;;;;;;;6.88;97.43;96573.91;5085700;28;20188;-62
2024/01/20 00:42:33;;;;;;;18.67;13.97;;;;;;;7.06;95.92;96573.19;5086700;28;20633;-63
2024/01/20 00:45:00;;;;;;;22.77;15.27;;;;;;;7.10;95.80;96553.28;5085402;28;20206;-62
2024/01/20 00:47:30;;;;;;;23.23;16.20;;;;;;;7.19;94.51;96553.75;5086724;28;20208;-63
2024/01/20 00:49:57;;;;;;;22.60;16.27;;;;;;;7.40;94.88;96577.81;5085349;28;20628;-61
2024/01/20 00:52:25;;;;;;;22.07;15.50;;;;;;;7.55;92.97;96584.06;5068821;28;20316;-62
2024/01/20 00:54:52;;;;;;;23.20;14.67;;;;;;;7.63;91.38;96590.59;5086321;28;20199;-62
2024/01/20 00:57:19;;;;;;;15.17;11.03;;;;;;;7.57;88.95;96584.84;5085584;28;20192;-62
2024/01/20 00:59:47;;;;;;;13.40;9.03;;;;;;;7.70;86.44;96597.16;5068647;28;20195;-63
2024/01/20 01:02:16;;;;;;;10.00;7.13;;;;;;;7.59;84.91;96589.03;5066634;28;20215;-64
2024/01/20 01:04:45;;;;;;;7.53;5.20;;;;;;;7.66;83.21;96599.94;5086529;28;20200;-63
2024/01/20 01:07:12;;;;;;;7.90;5.43;;;;;;;7.73;83.07;96593.63;5085272;28;20223;-63
2024/01/20 01:09:39;;;;;;;7.87;4.67;;;;;;;7.72;82.37;96595.38;5086511;28;20197;-63
2024/01/20 01:12:06;;;;;;;6.23;4.57;;;;;;;7.54;83.06;96566.94;5067995;28;20323;-64
2024/01/20 01:14:34;;;;;;;6.93;4.77;;;;;;;7.69;82.62;96574.03;5085699;28;20568;-62
2024/01/20 01:17:01;;;;;;;7.17;4.07;;;;;;;7.70;79.95;96568.81;5068684;28;20224;-62
2024/01/20 01:19:28;;;;;;;4.87;3.50;;;;;;;7.84;79.12;96558.75;5084956;28;20695;-63
2024/01/20 01:21:55;;;;;;;5.53;3.50;;;;;;;7.97;78.47;96554.78;5086583;28;20219;-64
2024/01/20 01:24:22;;;;;;;4.80;3.60;;;;;;;7.89;77.93;96532.78;5084836;28;20273;-64
2024/01/20 01:26:49;;;;;;;5.73;4.00;;;;;;;8.01;77.34;96558.88;5086282;28;20200;-64
2024/01/20 01:29:16;;;;;;;7.50;4.83;;;;;;;8.03;79.42;96553.66;5085695;28;20185;-65
2024/01/20 01:31:44;;;;;;;5.97;4.10;;;;;;;8.06;76.82;96554.34;5084970;28;20252;-62
2024/01/20 01:34:11;;;;;;;5.43;4.10;;;;;;;8.01;77.06;96538.25;5085986;28;20281;-65
2024/01/20 01:36:39;;;;;;;4.43;3.30;;;;;;;8.04;76.19;96545.84;5084550;28;20181;-62
2024/01/20 01:39:06;;;;;;;4.63;3.03;;;;;;;7.92;76.91;96550.69;5085954;28;20745;-63
2024/01/20 01:41:33;;;;;;;5.17;3.10;;;;;;;7.89;77.09;96556.00;5066246;28;20215;-64
2024/01/20 01:44:01;;;;;;;4.27;3.10;;;;;;;7.67;77.59;96548.31;5085913;28;20642;-65
2024/01/20 01:46:29;;;;;;;16.37;11.60;;;;;;;7.44;82.24;96558.75;5085228;28;20192;-63
2024/01/20 01:48:57;;;;;;;17.50;12.20;;;;;;;7.22;85.93;96570.81;5088050;28;20197;-65
2024/01/20 01:51:24;;;;;;;15.37;11.03;;;;;;;7.25;87.07;96568.13;5089410;28;20318;-64
2024/01/20 01:53:52;;;;;;;18.77;12.23;;;;;;;7.12;87.61;96572.09;5088117;28;20231;-62
2024/01/20 01:56:19;;;;;;;17.70;10.27;;;;;;;6.90;89.31;96572.13;5089530;28;20227;-65
2024/01/20 01:58:47;;;;;;;16.77;11.87;;;;;;;6.86;89.45;96575.66;5088550;28;20285;-63
2024/01/20 02:01:14;;;;;;;16.53;11.83;;;;;;;6.75;90.58;96582.13;5089213;28;20200;-64
2024/01/20 02:03:41;;;;;;;19.80;13.73;;;;;;;6.79;89.43;96573.41;5088457;28;20207;-65
2024/01/20 02:06:08;;;;;;;21.80;14.13;;;;;;;6.73;90.50;96578.78;5088675;28;20184;-64
2024/01/20 02:08:39;;;;;;;21.43;15.13;;;;;;;6.75;90.81;96602.72;5071028;28;20207;-65
2024/01/20 02:11:07;;;;;;;21.27;15.73;;;;;;;6.94;89.89;96608.84;5087920;28;20220;-66
2024/01/20 02:13:35;;;;;;;23.47;15.93;;;;;;;6.89;89.34;96606.44;5070965;28;20196;-64
2024/01/20 02:16:03;;;;;;;21.03;13.77;;;;;;;6.90;89.35;96610.72;5087723;28;20207;-63
2024/01/20 02:18:50;;;;;;;19.83;13.00;;;;;;;6.93;88.99;96618.31;5073658;28;20640;-63
2024/01/20 02:21:17;;;;;;;19.93;13.57;;;;;;;6.91;89.05;96614.94;5088650;28;20224;-62
2024/01/20 02:23:46;;;;;;;19.90;13.57;;;;;;;7.14;89.57;96619.22;5087862;28;20659;-64
2024/01/20 02:26:13;;;;;;;21.37;14.07;;;;;;;7.29;89.08;96628.91;5089199;28;20273;-63
2024/01/20 02:28:40;;;;;;;20.70;12.13;;;;;;;7.37;86.83;96624.31;5087605;28;20199;-63
2024/01/20 02:31:07;;;;;;;9.93;6.87;;;;;;;7.33;83.08;96628.75;5088734;28;20235;-65
2024/01/20 02:33:34;;;;;;;7.07;5.33;;;;;;;7.51;81.53;96627.16;5087409;28;20666;-65
2024/01/20 02:36:02;;;;;;;9.30;6.10;;;;;;;7.52;80.64;96635.75;5088711;28;20185;-62
2024/01/20 02:38:29;;;;;;;9.20;6.30;;;;;;;7.64;80.56;96627.50;5088069;28;20200;-60
2024/01/20 02:40:56;;;;;;;8.93;7.03;;;;;;;7.55;81.60;96628.72;5087613;28;20285;-62
2024/01/20 02:43:23;;;;;;;15.83;10.47;;;;;;;7.42;84.56;96634.44;5088517;28;20200;-62
2024/01/20 02:45:50;;;;;;;14.97;10.67;;;;;;;7.39;85.57;96630.22;5087132;28;20637;-63
2024/01/20 02:48:18;;;;;;;17.03;11.57;;;;;;;7.18;85.96;96629.34;5088474;28;20205;-63
2024/01/20 02:50:45;;;;;;;14.90;11.20;;;;;;;7.25;86.63;96629.94;5087077;28;20324;-61
2024/01/20 02:53:12;;;;;;;16.63;12.10;;;;;;;7.24;86.25;96620.53;5088325;28;20695;-61
2024/01/20 02:55:39;;;;;;;21.70;12.53;;;;;;;7.18;86.61;96628.50;5087705;28;20208;-64
2024/01/20 02:58:07;;;;;;;16.63;12.07;;;;;;;7.21;87.00;96633.53;5087328;28;20199;-64
2024/01/20 03:00:34;;;;;;;17.17;11.97;;;;;;;7.22;86.89;96630.91;5088069;28;20207;-65
2024/01/20 03:03:01;;;;;;;17.60;11.00;;;;;;;7.16;87.79;96653.47;5086432;28;20192;-64
2024/01/20 03:05:28;;;;;;;13.87;9.47;;;;;;;7.15;87.34;96656.97;5088025;28;20193;-65
2024/01/20 03:07:55;;;;;;;5.70;4.30;;;;;;;7.11;80.96;96668.28;5086570;28;20205;-65
2024/01/20 03:10:23;;;;;;;4.90;2.93;;;;;;;7.05;76.15;96669.31;5087976;28;20685;-65
2024/01/20 03:12:50;;;;;;;2.50;2.23;;;;;;;6.97;74.14;96681.63;5087195;28;20301;-63
2024/01/20 03:15:17;;;;;;;2.90;2.27;;;;;;;6.96;74.88;96673.97;5087306;28;20650;-64
2024/01/20 03:17:44;;;;;;;3.60;2.13;;;;;;;6.99;73.56;96673.84;5087880;28;20257;-64
2024/01/20 03:20:11;;;;;;;2.80;2.07;;;;;;;7.06;73.37;96675.31;5086703;28;20703;-64
2024/01/20 03:22:38;;;;;;;3.53;2.20;;;;;;;7.13;74.28;96692.22;5087559;28;20689;-64
2024/01/20 03:25:05;;;;;;;3.37;2.20;;;;;;;7.25;73.38;96686.59;5086060;28;20610;-64
2024/01/20 03:27:32;;;;;;;2.17;1.90;;;;;;;7.15;72.58;96680.13;5087556;28;20227;-62
2024/01/20 03:29:59;;;;;;;2.53;2.20;;;;;;;7.23;72.45;96693.53;5068489;28;20227;-65
2024/01/20 03:32:26;;;;;;;3.30;2.13;;;;;;;7.22;71.58;96697.00;5087037;28;20228;-64
2024/01/20 03:34:53;;;;;;;2.30;2.00;;;;;;;7.13;72.86;96699.94;5087521;28;20690;-64
2024/01/20 03:37:20;;;;;;;2.57;2.07;;;;;;;7.14;72.49;96714.47;5086369;28;20248;-64
2024/01/20 03:39:48;;;;;;;4.00;1.93;;;;;;;7.16;73.11;96731.56;5087556;28;20203;-62
2024/01/20 03:42:15;;;;;;;3.80;2.50;;;;;;;7.19;72.38;96713.41;5085865;28;20200;-62
2024/01/20 03:44:42;;;;;;;2.97;2.17;;;;;;;7.37;71.30;96724.75;5069315;28;20220;-64
2024/01/20 03:47:09;;;;;;;2.30;2.10;;;;;;;7.33;71.73;96730.94;5086210;28;20196;-64
2024/01/20 03:49:36;;;;;;;2.43;2.23;;;;;;;7.37;71.65;96717.03;5087436;28;20280;-63
2024/01/20 03:52:03;;;;;;;3.30;2.40;;;;;;;7.40;71.33;96719.47;5087216;28;20322;-62
2024/01/20 03:54:30;;;;;;;3.57;2.50;;;;;;;7.35;71.14;96729.13;5085987;28;20258;-62
2024/01/20 03:56:57;;;;;;;5.67;3.13;;;;;;;7.60;72.23;96747.06;5087301;28;20672;-63
2024/01/20 03:59:24;;;;;;;11.50;4.13;;;;;;;7.53;71.91;96738.72;5085990;28;20246;-61
2024/01/20 04:01:51;;;;;;;5.70;3.10;;;;;;;7.20;72.41;96688.50;5087214;28;20242;-64
2024/01/20 04:04:18;;;;;;;4.17;2.70;;;;;;;7.47;73.39;96751.00;5085766;28;20218;-60
2024/01/20 04:06:45;;;;;;;5.10;2.90;;;;;;;7.15;75.16;96754.78;5086706;28;20725;-62
2024/01/20 04:09:12;;;;;;;4.70;2.80;;;;;;;6.89;75.48;96755.72;5085978;28;20218;-64
2024/01/20 04:11:39;;;;;;;5.67;3.90;;;;;;;6.77;76.85;96765.63;5084827;28;20223;-64
2024/01/20 04:14:06;;;;;;;7.33;5.03;;;;;;;6.67;79.72;96765.09;5086745;28;20529;-63
2024/01/20 04:16:34;;;;;;;6.47;4.30;;;;;;;6.44;80.33;96765.91;5085559;28;20282;-63
2024/01/20 04:19:01;;;;;;;7.33;4.73;;;;;;;6.46;80.99;96786.41;5086233;28;20207;-64
2024/01/20 04:21:28;;;;;;;4.70;3.87;;;;;;;6.49;79.24;96789.72;5085288;28;20192;-62
2024/01/20 04:23:55;;;;;;;4.63;3.73;;;;;;;6.56;78.59;96782.63;5086429;28;20290;-62
2024/01/20 04:26:22;;;;;;;6.37;4.53;;;;;;;6.52;80.15;96792.19;5067609;28;20304;-64
2024/01/20 04:28:49;;;;;;;6.63;4.27;;;;;;;6.48;79.44;96784.63;5085601;28;20738;-64
2024/01/20 04:31:16;;;;;;;7.03;5.17;;;;;;;6.64;79.68;96800.38;5085981;28;20218;-63
2024/01/20 04:33:43;;;;;;;6.50;3.73;;;;;;;6.52;77.28;96815.34;5066737;28;20207;-62
2024/01/20 04:36:10;;;;;;;5.07;4.43;;;;;;;6.53;78.74;96831.63;5086663;28;20199;-62
2024/01/20 04:38:39;;;;;;;6.10;3.90;;;;;;;6.58;76.53;96832.31;5085219;28;20199;-62
2024/01/20 04:41:06;;;;;;;5.83;3.17;;;;;;;6.58;75.94;96848.59;5086747;28;20260;-63
2024/01/20 04:43:33;;;;;;;5.47;2.97;;;;;;;6.72;74.00;96849.88;5085875;28;20735;-63
2024/01/20 04:46:00;;;;;;;4.20;3.03;;;;;;;6.79;72.99;96848.75;5086209;28;20201;-62
2024/01/20 04:48:28;;;;;;;3.83;2.37;;;;;;;6.75;72.22;96837.72;5086514;28;20204;-63
2024/01/20 04:50:58;;;;;;;2.70;2.23;;;;;;;6.67;72.46;96841.44;5085574;28;20192;-67
2024/01/20 04:53:25;;;;;;;4.53;3.13;;;;;;;6.49;74.42;96842.91;5086597;28;20210;-64
2024/01/20 04:55:52;;;;;;;3.70;3.30;;;;;;;6.43;74.25;96835.38;5085075;28;20200;-62
2024/01/20 04:58:19;;;;;;;3.27;2.33;;;;;;;6.54;73.25;96829.00;5086759;28;20227;-63
2024/01/20 05:00:46;;;;;;;4.70;3.37;;;;;;;6.47;72.92;96840.38;5085371;28;20192;-64
2024/01/20 05:03:13;;;;;;;4.80;2.50;;;;;;;6.43;73.27;96823.34;5086045;28;20656;-61
2024/01/20 05:05:40;;;;;;;2.40;2.03;;;;;;;6.36;74.25;96832.19;5086507;28;20194;-62
2024/01/20 05:08:08;;;;;;;3.00;2.50;;;;;;;6.47;74.72;96848.09;5085246;28;20231;-64
2024/01/20 05:10:35;;;;;;;3.20;2.70;;;;;;;6.57;75.77;96856.34;5068407;28;20291;-63
2024/01/20 05:13:03;;;;;;;4.10;2.37;;;;;;;6.76;75.38;96861.72;5085098;28;20234;-63
2024/01/20 05:15:31;;;;;;;4.17;2.90;;;;;;;6.74;74.98;96863.53;5086538;28;20228;-62
2024/01/20 05:17:58;;;;;;;5.37;2.77;;;;;;;6.58;75.86;96843.44;5085160;28;20185;-62
2024/01/20 05:20:26;;;;;;;3.90;2.87;;;;;;;6.65;75.95;96863.81;5085984;28;20743;-61
2024/01/20 05:22:53;;;;;;;4.57;3.47;;;;;;;6.43;77.44;96873.94;5087225;28;20234;-61
2024/01/20 05:25:20;;;;;;;5.60;3.53;;;;;;;6.25;77.74;96865.09;5054172;28;20225;-61
2024/01/20 05:27:47;;;;;;;3.60;2.73;;;;;;;6.05;77.87;96882.88;5090327;28;20764;-62
2024/01/20 05:30:14;;;;;;;4.13;2.90;;;;;;;5.97;75.63;96884.84;5088474;28;20209;-61
2024/01/20 05:32:42;;;;;;;2.40;1.93;;;;;;;5.95;76.14;96880.63;5089960;28;20580;-64
2024/01/20 05:35:10;;;;;;;3.43;2.20;;;;;;;6.11;77.88;96905.81;5070577;28;20209;-63
2024/01/20 05:37:37;;;;;;;6.47;4.00;;;;;;;6.22;77.33;96916.59;5089649;28;20183;-61
2024/01/20 05:40:05;;;;;;;8.30;4.77;;;;;;;6.35;78.45;96917.91;5089536;28;20196;-61
2024/01/20 05:42:32;;;;;;;7.17;4.40;;;;;;;6.32;77.04;96882.03;5088984;28;20760;-63
2024/01/20 05:44:59;;;;;;;5.43;2.50;;;;;;;6.37;74.81;96931.56;5090016;28;20186;-62
2024/01/20 05:47:27;;;;;;;2.93;2.20;;;;;;;6.13;73.09;96916.91;5088073;28;20203;-63
2024/01/20 05:49:54;;;;;;;6.17;2.73;;;;;;;6.05;74.19;96920.59;5071408;28;20553;-62
2024/01/20 05:52:21;;;;;;;2.27;1.83;;;;;;;6.05;74.02;96928.31;5069968;28;20231;-64
2024/01/20 05:54:48;;;;;;;1.83;1.50;;;;;;;5.93;72.63;96926.94;5089564;28;20281;-61
2024/01/20 05:57:15;;;;;;;1.50;1.40;;;;;;;5.67;72.46;96930.22;5088551;28;20917;-60
2024/01/20 05:59:42;;;;;;;2.37;1.50;;;;;;;5.52;73.62;96940.91;5088665;28;20200;-61
2024/01/20 06:02:09;;;;;;;2.07;1.00;;;;;;;5.06;74.35;96901.13;5089041;28;20230;-61
2024/01/20 06:04:36;;;;;;;1.47;1.10;;;;;;;5.30;75.73;96959.50;5087692;28;20230;-63
2024/01/20 06:07:03;;;;;;;2.10;1.83;;;;;;;5.20;76.50;96961.47;5089247;28;20654;-61
2024/01/20 06:09:30;;;;;;;2.33;0.90;;;;;;;4.59;78.12;96956.19;5085907;28;21111;-61
2024/01/20 06:12:00;;;;;;;0.93;0.93;;;;;;;4.29;80.83;96962.84;5089090;28;20471;-62
2024/01/20 06:14:27;;;;;;;1.43;1.30;;;;;;;4.34;80.60;96960.19;5069931;28;20679;-61
2024/01/20 06:16:54;;;;;;;1.80;1.60;;;;;;;4.39;82.27;96979.72;5088658;28;20208;-62
2024/01/20 06:19:21;;;;;;;1.57;1.10;;;;;;;4.39;80.10;96989.97;5088746;28;20189;-62
2024/01/20 06:21:48;;;;;;;1.83;1.20;;;;;;;4.40;80.66;96989.09;5087402;28;20202;-62
2024/01/20 06:24:15;;;;;;;1.03;1.03;;;;;;;4.47;80.03;96992.38;5088604;28;20242;-62
2024/01/20 06:26:42;;;;;;;2.23;1.80;;;;;;;4.29;80.31;96988.50;5088076;28;20195;-62
2024/01/20 06:29:11;;;;;;;1.57;1.33;;;;;;;4.49;81.58;97006.81;5088665;28;20197;-62
2024/01/20 06:31:38;;;;;;;4.37;2.87;;;;;;;4.65;81.47;97013.31;5069284;28;20228;-62
2024/01/20 06:34:05;;;;;;;1.77;1.50;;;;;;;4.39;79.53;97005.34;5087701;28;20190;-63
2024/01/20 06:36:33;;;;;;;4.63;2.80;;;;;;;4.41;80.24;97025.84;5070178;28;20198;-61
2024/01/20 06:39:00;;;;;;;1.40;1.20;;;;;;;4.32;80.71;97014.06;5069041;28;20185;-63
2024/01/20 06:41:27;;;;;;;2.03;1.83;;;;;;;4.22;80.87;97017.72;5088209;28;20189;-61
2024/01/20 06:43:54;;;;;;;0.80;0.80;;;;;;;4.14;81.36;97029.84;5086427;28;20221;-61
2024/01/20 06:46:21;;;;;;;2.30;1.60;;;;;;;4.21;82.14;97036.50;5088006;28;20194;-62
2024/01/20 06:49:28;;;;;;;2.37;2.13;;;;;;;4.33;82.37;97033.69;5086755;28;20206;-62
2024/01/20 06:52:09;;;;;;;4.33;3.20;;;;;;;4.56;82.67;97044.28;5085583;28;20577;-66
2024/01/20 06:54:38;;;;;;;4.60;3.17;;;;;;;4.60;81.88;97051.03;5087478;28;20189;-63
2024/01/20 06:57:06;;;;;;;5.77;3.57;;;;;;;4.62;82.78;97063.81;5086199;28;20736;-64
2024/01/20 06:59:33;;;;;;;2.67;2.37;;;;;;;4.81;82.10;97049.72;5087166;28;20203;-60
2024/01/20 07:02:00;;;;;;;6.83;4.13;;;;;;;4.78;80.76;97052.34;5086170;28;20823;-60
2024/01/20 07:04:27;;;;;;;6.70;3.73;;;;;;;5.04;83.05;97065.41;5087289;28;20192;-61
2024/01/20 07:06:55;;;;;;;5.30;3.80;;;;;;;4.89;81.20;97074.31;5087088;28;20206;-63
2024/01/20 07:09:22;;;;;;;6.13;3.73;;;;;;;4.90;82.07;97075.97;5086317;28;20199;-65
2024/01/20 07:11:49;;;;;;;3.47;2.90;;;;;;;4.74;81.93;97081.53;5087403;28;20280;-64
2024/01/20 07:14:17;;;;;;;2.00;1.87;;;;;;;4.79;80.68;97097.63;5086132;28;20286;-64
2024/01/20 07:16:44;;;;;;;4.27;2.50;;;;;;;4.68;80.60;97114.97;5087608;28;20205;-65
2024/01/20 07:19:11;;;;;;;2.20;1.70;;;;;;;4.29;82.05;97111.53;5086048;28;20201;-66
2024/01/20 07:21:38;;;;;;;3.03;2.20;;;;;;;4.19;83.66;97127.97;5087229;28;20182;-64
2024/01/20 07:24:05;;;;;;;4.20;2.73;;;;;;;3.94;85.23;97135.25;5051749;28;20261;-65
2024/01/20 07:26:32;;;;;;;2.90;2.40;;;;;;;3.43;87.87;97136.16;5086307;28;20568;-60
2024/01/20 07:28:59;;;;;;;1.10;0.97;;;;;;;2.86;91.23;97148.16;5087575;28;20655;-62
2024/01/20 07:31:26;;;;;;;2.40;1.50;;;;;;;2.91;92.72;97160.84;5085761;28;20340;-63
2024/01/20 07:33:53;;;;;;;4.33;1.73;;;;;;;2.78;93.67;97141.44;5087009;28;20613;-60
2024/01/20 07:36:40;;;;;;;2.43;1.77;;;;;;;2.97;93.17;97166.72;5084620;28;20201;-62
2024/01/20 07:39:08;;;;;;;4.13;2.90;;;;;;;2.95;92.95;97162.50;5086184;28;20203;-62
2024/01/20 07:41:35;;;;;;;3.17;2.50;;;;;;;3.07;92.02;97165.72;5086767;28;20202;-64
2024/01/20 07:44:02;;;;;;;5.53;3.60;;;;;;;2.95;92.72;97158.22;5085601;28;20627;-65
2024/01/20 07:46:29;;;;;;;6.13;4.10;;;;;;;2.76;92.28;97155.97;5085721;28;20246;-60
2024/01/20 07:48:56;;;;;;;8.47;5.87;;;;;;;3.13;93.33;97178.41;5085333;28;20284;-61
2024/01/20 07:51:23;;;;;;;6.43;5.10;;;;;;;3.30;92.73;97166.22;5086617;28;20666;-62
2024/01/20 07:53:50;;;;;;;15.47;8.67;;;;;;;3.34;90.63;97176.44;5085156;28;20258;-63
2024/01/20 07:56:18;;;;;;;6.37;4.87;;;;;;;3.33;90.33;97193.50;5086175;28;20199;-62
2024/01/20 07:58:48;;;;;;;9.07;5.63;;;;;;;3.40;90.36;97191.69;5085985;28;20211;-60
2024/01/20 08:01:17;;;;;;;7.80;5.50;;;;;;;3.50;90.14;97193.25;5084601;28;20296;-69
2024/01/20 08:03:44;;;;;;;7.93;6.07;;;;;;;3.54;90.10;97195.72;5086299;28;20222;-63
2024/01/20 08:06:11;;;;;;;9.97;6.57;;;;;;;3.46;89.24;97199.28;5084614;28;20223;-61
2024/01/20 08:08:39;;;;;;;12.47;7.77;;;;;;;3.58;89.81;97204.19;5068014;28;20681;-66
2024/01/20 08:11:06;;;;;;;10.00;8.17;;;;;;;3.59;89.64;97200.75;5084850;28;20630;-66
2024/01/20 08:13:33;;;;;;;10.43;9.23;;;;;;;3.63;89.31;97204.94;5067920;28;20225;-65
2024/01/20 08:16:00;;;;;;;7.23;5.90;;;;;;;3.68;88.72;97208.31;5085630;28;20271;-61
2024/01/20 08:18:28;;;;;;;5.40;3.77;;;;;;;3.62;88.27;97216.94;5085296;28;20189;-65
2024/01/20 08:20:55;;;;;;;9.33;6.93;;;;;;;3.40;89.27;97217.28;5085948;28;20650;-64
2024/01/20 08:23:22;;;;;;;8.10;5.80;;;;;;;3.53;89.40;97223.88;5084799;28;20244;-67
2024/01/20 08:25:49;;;;;;;8.27;5.13;;;;;;;3.46;89.19;97232.56;5086148;28;20197;-64
2024/01/20 08:28:17;;;;;;;7.03;5.37;;;;;;;3.47;89.67;97224.84;5084287;28;20205;-65
2024/01/20 08:30:44;;;;;;;8.73;7.33;;;;;;;3.51;89.32;97234.16;5085392;28;20205;-65
2024/01/20 08:33:11;;;;;;;8.20;6.27;;;;;;;3.43;89.13;97219.78;5066107;28;20311;-67
2024/01/20 08:35:38;;;;;;;11.33;7.10;;;;;;;3.61;89.17;97243.38;5085459;28;20198;-68
2024/01/20 08:38:05;;;;;;;7.53;6.47;;;;;;;3.71;88.94;97249.25;5085831;28;20598;-68
2024/01/20 08:40:32;;;;;;;11.33;8.60;;;;;;;3.78;89.48;97235.44;5084359;28;20622;-65
2024/01/20 08:43:00;;;;;;;8.03;7.03;;;;;;;3.85;89.20;97263.47;5085863;28;20596;-65
2024/01/20 08:45:27;;;;;;;8.63;6.63;;;;;;;3.90;89.41;97266.84;5084391;28;20201;-67
2024/01/20 08:47:54;;;;;;;7.77;6.43;;;;;;;3.98;89.09;97264.13;5085769;28;20197;-61
2024/01/20 08:50:23;;;;;;;12.57;9.43;;;;;;;4.00;88.48;97270.09;5084585;28;20209;-63
2024/01/20 08:52:50;;;;;;;8.47;5.20;;;;;;;4.04;88.41;97266.59;5085195;28;20255;-63
2024/01/20 08:55:18;;;;;;;7.33;5.03;;;;;;;4.06;89.01;97263.13;5086148;28;20193;-63
2024/01/20 08:57:45;;;;;;;12.20;7.23;;;;;;;4.14;89.49;97265.59;5087507;28;20282;-62
2024/01/20 09:00:12;;;;;;;6.63;4.67;;;;;;;4.18;89.48;97276.63;5089571;28;20186;-61
2024/01/20 09:02:40;;;;;;;12.77;7.83;;;;;;;4.21;89.35;97261.19;5088692;28;20686;-61
2024/01/20 09:05:07;;;;;;;11.43;7.03;;;;;;;4.24;88.81;97279.94;5090068;28;20908;-65
2024/01/20 09:07:34;;;;;;;4.73;4.20;;;;;;;4.13;88.02;97274.13;5088607;28;20668;-66
2024/01/20 09:10:03;;;;;;;3.70;3.03;;;;;;;3.87;88.28;97276.28;5089737;28;20194;-61
2024/01/20 09:12:30;;;;;;;6.80;4.30;;;;;;;3.77;87.33;97306.31;5071051;28;20234;-60
2024/01/20 09:14:58;;;;;;;7.17;4.60;;;;;;;3.57;88.78;97300.63;5088165;28;20198;-60
2024/01/20 09:17:25;;;;;;;4.57;3.00;;;;;;;3.24;89.96;97301.94;5089861;28;20269;-63
2024/01/20 09:19:52;;;;;;;9.00;5.33;;;;;;;3.57;90.91;97308.31;5088076;28;20654;-66
2024/01/20 09:22:20;;;;;;;15.07;10.13;;;;;;;3.52;90.52;97309.25;5088915;28;20189;-62
2024/01/20 09:24:47;;;;;;;20.27;13.43;;;;;;;3.40;92.00;97324.78;5069453;28;20637;-65
2024/01/20 09:27:14;;;;;;;37.33;23.17;;;;;;;3.28;92.73;97324.06;5088750;28;20228;-63
2024/01/20 09:29:41;;;;;;;39.37;23.57;;;;;;;3.29;93.39;97328.34;5088155;28;20284;-62
2024/01/20 09:32:09;;;;;;;57.53;32.90;;;;;;;3.53;92.98;97326.28;5087908;28;20297;-62
2024/01/20 09:34:37;;;;;;;85.70;44.83;;;;;;;3.35;92.25;97334.22;5088476;28;20231;-61
2024/01/20 09:37:04;;;;;;;88.73;45.90;;;;;;;2.92;94.48;97326.22;5088084;28;20205;-60
2024/01/20 09:39:34;;;;;;;71.67;42.30;;;;;;;2.94;94.15;97299.78;5088840;28;20965;-62
2024/01/20 09:42:02;;;;;;;63.70;37.23;;;;;;;3.29;94.25;97328.34;5087129;28;20292;-60
2024/01/20 09:44:29;;;;;;;63.67;34.50;;;;;;;2.88;95.94;97324.56;5088404;28;20707;-62
2024/01/20 09:46:57;;;;;;;61.17;33.70;;;;;;;2.71;96.21;97323.91;5070160;28;20228;-61
2024/01/20 09:49:24;;;;;;;49.00;31.50;;;;;;;2.73;96.49;97328.13;5070112;28;20218;-61
2024/01/20 09:51:52;;;;;;;59.07;32.33;;;;;;;2.62;97.54;97337.63;5088578;28;20219;-65
2024/01/20 09:54:22;;;;;;;62.07;32.70;;;;;;;2.37;97.84;97310.63;5068985;28;20239;-61
2024/01/20 09:56:50;;;;;;;46.87;27.93;;;;;;;2.80;97.75;97347.69;5088370;28;20196;-62
2024/01/20 09:59:20;;;;;;;38.63;22.50;;;;;;;2.95;96.83;97346.63;5087162;28;20190;-64
2024/01/20 10:01:49;;;;;;;25.07;16.10;;;;;;;3.01;96.63;97337.19;5088193;28;20199;-61
2024/01/20 10:04:19;;;;;;;34.13;20.60;;;;;;;3.22;95.07;97361.66;5087622;28;20219;-62
2024/01/20 10:06:46;;;;;;;26.57;16.10;;;;;;;3.24;94.98;97358.22;5087563;28;20205;-61
2024/01/20 10:09:13;;;;;;;23.63;14.30;;;;;;;3.08;93.64;97345.63;5069158;28;20190;-65
2024/01/20 10:11:41;;;;;;;16.73;9.93;;;;;;;2.97;94.73;97363.66;5086725;28;20258;-66
2024/01/20 10:14:08;;;;;;;14.63;8.87;;;;;;;3.15;93.96;97360.06;5088036;28;20258;-61
2024/01/20 10:16:41;;;;;;;15.60;9.13;;;;;;;3.01;94.52;97364.50;5086691;28;20193;-59
2024/01/20 10:19:08;;;;;;;15.77;9.40;;;;;;;2.81;94.06;97322.94;5070052;28;20769;-63
2024/01/20 10:21:40;;;;;;;14.93;9.50;;;;;;;3.28;93.68;97365.00;5087501;28;20283;-59
2024/01/20 10:24:07;;;;;;;12.37;8.83;;;;;;;3.28;93.78;97377.81;5087267;28;20271;-59
2024/01/20 10:26:42;;;;;;;13.57;9.30;;;;;;;3.46;94.77;97381.88;5088055;28;20211;-60
2024/01/20 10:29:09;;;;;;;10.50;8.13;;;;;;;3.48;94.06;97380.13;5086436;28;20205;-60
2024/01/20 10:31:36;;;;;;;9.30;6.87;;;;;;;3.55;93.16;97391.13;5088244;28;20538;-61
2024/01/20 10:34:03;;;;;;;9.57;6.90;;;;;;;3.65;93.56;97392.69;5086667;28;20260;-64
2024/01/20 10:36:32;;;;;;;11.13;8.33;;;;;;;3.34;92.44;97388.84;5087421;28;20726;-62
2024/01/20 10:39:04;;;;;;;11.27;7.60;;;;;;;2.96;93.41;97384.16;5068880;28;20220;-65
2024/01/20 10:41:37;;;;;;;9.17;7.17;;;;;;;3.03;93.38;97394.28;5087033;28;20189;-62
2024/01/20 10:44:07;;;;;;;9.50;7.17;;;;;;;3.08;94.45;97389.13;5087868;28;20245;-63
2024/01/20 10:46:39;;;;;;;8.10;6.37;;;;;;;2.93;94.98;97390.13;5086869;28;20271;-64
2024/01/20 10:49:15;;;;;;;7.87;6.20;;;;;;;3.19;94.81;97392.44;5087621;28;20285;-64
2024/01/20 10:51:44;;;;;;;10.17;7.93;;;;;;;3.27;94.01;97383.81;5068478;28;20284;-66
2024/01/20 10:54:12;;;;;;;13.03;9.00;;;;;;;2.58;93.77;97287.38;5068523;28;20227;-63
2024/01/20 10:56:40;;;;;;;7.00;5.13;;;;;;;3.19;93.75;97390.69;5068639;28;20199;-62
2024/01/20 10:59:13;;;;;;;10.07;5.93;;;;;;;3.21;93.76;97394.09;5067499;28;20625;-63
2024/01/20 11:01:45;;;;;;;8.30;5.37;;;;;;;3.27;93.22;97404.28;5087251;28;20204;-61
2024/01/20 11:04:19;;;;;;;5.57;4.80;;;;;;;3.08;93.80;97405.34;5085202;28;20259;-62
2024/01/20 11:06:46;;;;;;;6.30;5.13;;;;;;;3.01;94.60;97402.88;5086818;28;20215;-63
2024/01/20 11:09:21;;;;;;;8.33;6.73;;;;;;;2.48;95.10;97358.22;5086467;28;20209;-65
2024/01/20 11:12:20;;;;;;;10.90;7.33;;;;;;;2.97;95.18;97416.53;5067913;28;20200;-63
2024/01/20 11:15:11;;;;;;;10.07;7.20;;;;;;;3.13;95.26;97413.78;5064221;28;20194;-61
2024/01/20 11:17:38;;;;;;;9.50;7.40;;;;;;;3.26;94.79;97414.50;5086227;28;20202;-64
2024/01/20 11:20:07;;;;;;;9.43;7.00;;;;;;;3.28;94.30;97418.75;5086710;28;20218;-65
2024/01/20 11:22:39;;;;;;;16.60;9.63;;;;;;;3.17;93.83;97387.31;5086403;28;20217;-61
2024/01/20 11:25:07;;;;;;;8.07;5.67;;;;;;;3.31;94.74;97420.44;5085576;28;20194;-61
2024/01/20 11:27:54;;;;;;;7.37;5.40;;;;;;;2.95;93.48;97392.66;5087089;28;20276;-66
2024/01/20 11:30:26;;;;;;;8.23;5.43;;;;;;;3.11;93.98;97424.94;5085967;28;20290;-62
2024/01/20 11:32:57;;;;;;;8.73;5.77;;;;;;;2.84;94.49;97385.13;5085973;28;20334;-63
2024/01/20 11:35:25;;;;;;;7.23;5.60;;;;;;;3.05;94.74;97417.31;5086078;28;20200;-65
2024/01/20 11:37:57;;;;;;;7.07;4.90;;;;;;;3.19;94.07;97429.06;5085988;28;20317;-63
2024/01/20 11:40:25;;;;;;;6.20;5.27;;;;;;;3.17;94.42;97430.81;5087318;28;20587;-61